createdAt,value
2023-04-22T00:00:43.165Z,56.79
2023-04-22T00:03:11.952Z,56.47
2023-04-22T00:05:40.483Z,54.45
2023-04-22T00:08:09.298Z,56.49
2023-04-22T00:10:37.717Z,56.07
2023-04-22T00:13:05.627Z,56.04
2023-04-22T00:15:33.698Z,56.45
2023-04-22T00:18:02.058Z,55.10
2023-04-22T00:20:32.636Z,56.06
2023-04-22T00:23:00.640Z,59.05
2023-04-22T00:25:28.897Z,59.24
2023-04-22T00:27:56.806Z,59.17
2023-04-22T00:30:24.828Z,56.83
2023-04-22T00:32:53.749Z,58.50
2023-04-22T00:35:21.736Z,59.70
2023-04-22T00:37:49.730Z,58.74
2023-04-22T00:40:18.045Z,60.36
2023-04-22T00:42:49.377Z,60.92
2023-04-22T00:45:20.105Z,61.56
2023-04-22T00:47:49.390Z,60.96
2023-04-22T00:50:17.875Z,60.82
2023-04-22T00:52:45.815Z,60.39
2023-04-22T00:55:13.724Z,60.25
2023-04-22T00:57:42.790Z,60.78
2023-04-22T01:00:12.068Z,58.87
2023-04-22T01:02:40.541Z,61.03
2023-04-22T01:05:10.057Z,61.27
2023-04-22T01:07:38.454Z,60.71
2023-04-22T01:10:07.018Z,59.00
2023-04-22T01:12:35.278Z,61.52
2023-04-22T01:15:05.086Z,62.05
2023-04-22T01:17:34.215Z,60.91
2023-04-22T01:20:04.721Z,63.19
2023-04-22T01:22:37.655Z,62.68
2023-04-22T01:25:07.872Z,63.21
2023-04-22T01:27:36.526Z,63.58
2023-04-22T01:30:09.262Z,62.03
2023-04-22T01:32:41.183Z,61.49
2023-04-22T01:35:10.493Z,64.04
2023-04-22T01:37:39.801Z,62.17
2023-04-22T01:40:10.092Z,61.02
2023-04-22T01:42:39.364Z,63.34
2023-04-22T01:45:07.939Z,63.04
2023-04-22T01:47:35.927Z,60.09
2023-04-22T01:50:04.553Z,62.19
2023-04-22T01:52:33.087Z,65.58
2023-04-22T01:55:02.866Z,66.34
2023-04-22T01:57:31.053Z,61.74
2023-04-22T01:59:59.183Z,63.21
2023-04-22T02:02:27.356Z,63.23
2023-04-22T02:04:55.750Z,63.70
2023-04-22T02:07:23.909Z,64.33
2023-04-22T02:09:51.942Z,64.50
2023-04-22T02:12:20.171Z,65.25
2023-04-22T02:14:48.170Z,64.68
2023-04-22T02:17:36.322Z,61.82
2023-04-22T02:20:05.608Z,64.63
2023-04-22T02:22:36.341Z,65.71
2023-04-22T02:25:05.179Z,66.70
2023-04-22T02:27:34.089Z,65.46
2023-04-22T02:30:01.959Z,66.83
2023-04-22T02:32:31.987Z,67.43
2023-04-22T02:35:00.403Z,65.98
2023-04-22T02:37:28.330Z,68.00
2023-04-22T02:39:56.249Z,68.27
2023-04-22T02:42:24.416Z,67.90
2023-04-22T02:44:52.354Z,67.98
2023-04-22T02:47:21.531Z,68.53
2023-04-22T02:49:49.840Z,67.87
2023-04-22T02:52:17.848Z,68.10
2023-04-22T02:54:45.813Z,67.73
2023-04-22T02:57:14.155Z,64.11
2023-04-22T02:59:42.445Z,62.96
2023-04-22T03:02:11.709Z,63.93
2023-04-22T03:04:41.892Z,65.63
2023-04-22T03:07:09.858Z,64.57
2023-04-22T03:09:37.970Z,64.39
2023-04-22T03:12:09.514Z,64.45
2023-04-22T03:14:37.381Z,60.33
2023-04-22T03:17:05.774Z,64.34
2023-04-22T03:19:34.136Z,63.15
2023-04-22T03:22:02.565Z,62.68
2023-04-22T03:24:30.522Z,63.42
2023-04-22T03:27:04.390Z,60.41
2023-04-22T03:29:32.769Z,57.86
2023-04-22T03:32:01.024Z,62.44
2023-04-22T03:34:29.151Z,60.63
2023-04-22T03:36:57.345Z,58.46
2023-04-22T03:39:26.504Z,59.48
2023-04-22T03:41:54.603Z,60.42
2023-04-22T03:44:22.699Z,61.56
2023-04-22T03:46:51.073Z,61.53
2023-04-22T03:49:19.819Z,60.10
2023-04-22T03:51:47.733Z,57.93
2023-04-22T03:54:16.822Z,58.15
2023-04-22T03:56:58.318Z,57.31
2023-04-22T03:59:27.239Z,58.46
2023-04-22T04:01:55.896Z,57.53
2023-04-22T04:04:25.328Z,55.03
2023-04-22T04:06:53.894Z,52.84
2023-04-22T04:09:21.855Z,55.19
2023-04-22T04:11:50.081Z,53.59
2023-04-22T04:14:18.541Z,51.82
2023-04-22T04:16:47.174Z,53.58
2023-04-22T04:19:16.161Z,53.64
2023-04-22T04:21:44.399Z,52.35
2023-04-22T04:24:12.321Z,51.11
2023-04-22T04:26:41.964Z,51.48
2023-04-22T04:29:10.388Z,49.49
2023-04-22T04:31:38.866Z,49.45
2023-04-22T04:34:08.483Z,51.43
2023-04-22T04:36:37.101Z,50.34
2023-04-22T04:39:07.125Z,46.53
2023-04-22T04:41:35.933Z,47.21
2023-04-22T04:44:04.291Z,48.71
2023-04-22T04:46:35.028Z,49.67
2023-04-22T04:49:04.923Z,47.93
2023-04-22T04:51:33.570Z,47.92
2023-04-22T04:54:01.959Z,45.30
2023-04-22T04:56:32.097Z,46.81
2023-04-22T04:59:02.003Z,48.63
2023-04-22T05:01:30.372Z,44.46
2023-04-22T05:04:00.073Z,43.07
2023-04-22T05:06:28.363Z,44.76
2023-04-22T05:08:57.592Z,43.45
2023-04-22T05:11:25.746Z,44.63
2023-04-22T05:13:54.248Z,42.86
2023-04-22T05:16:23.286Z,46.94
2023-04-22T05:18:51.230Z,44.05
2023-04-22T05:21:20.622Z,42.94
2023-04-22T05:23:49.693Z,40.31
2023-04-22T05:26:17.951Z,43.51
2023-04-22T05:28:46.830Z,41.92
2023-04-22T05:31:16.648Z,44.30
2023-04-22T05:33:44.624Z,40.71
2023-04-22T05:36:12.361Z,41.70
2023-04-22T05:38:41.447Z,39.34
2023-04-22T05:41:09.426Z,39.86
2023-04-22T05:43:37.301Z,36.65
2023-04-22T05:46:06.915Z,40.72
2023-04-22T05:48:35.671Z,38.46
2023-04-22T05:51:04.448Z,38.63
2023-04-22T05:53:33.488Z,40.78
2023-04-22T05:56:02.173Z,38.38
2023-04-22T05:58:30.098Z,36.60
2023-04-22T06:00:58.464Z,36.50
2023-04-22T06:03:29.457Z,35.59
2023-04-22T06:05:58.257Z,40.57
2023-04-22T06:08:26.339Z,35.78
2023-04-22T06:10:54.682Z,33.93
2023-04-22T06:13:23.163Z,35.42
2023-04-22T06:15:52.375Z,38.85
2023-04-22T06:18:21.118Z,38.04
2023-04-22T06:20:49.358Z,37.18
2023-04-22T06:23:17.233Z,32.96
2023-04-22T06:25:46.295Z,32.63
2023-04-22T06:28:22.673Z,36.56
2023-04-22T06:30:51.611Z,32.70
2023-04-22T06:33:22.666Z,37.44
2023-04-22T06:35:51.697Z,30.66
2023-04-22T06:38:19.777Z,37.55
2023-04-22T06:40:48.541Z,34.30
2023-04-22T06:43:17.595Z,30.44
2023-04-22T06:45:57.892Z,32.67
2023-04-22T06:48:28.268Z,33.73
2023-04-22T06:50:57.794Z,31.17
2023-04-22T06:53:27.974Z,33.26
2023-04-22T06:55:56.234Z,34.95
2023-04-22T06:58:24.135Z,28.34
2023-04-22T07:00:52.252Z,34.50
2023-04-22T07:03:21.012Z,31.58
2023-04-22T07:05:55.857Z,31.94
2023-04-22T07:08:24.832Z,34.20
2023-04-22T07:10:53.141Z,30.82
2023-04-22T07:13:22.037Z,33.96
2023-04-22T07:15:50.496Z,33.10
2023-04-22T07:18:18.619Z,36.69
2023-04-22T07:20:46.629Z,27.04
2023-04-22T07:23:14.960Z,26.91
2023-04-22T07:25:42.968Z,33.95
2023-04-22T07:28:11.019Z,30.19
2023-04-22T07:30:39.491Z,31.34
2023-04-22T07:33:07.611Z,31.79
2023-04-22T07:35:35.625Z,28.19
2023-04-22T07:38:03.998Z,30.91
2023-04-22T07:40:31.922Z,28.47
2023-04-22T07:42:59.897Z,27.88
2023-04-22T07:45:28.370Z,29.86
2023-04-22T07:47:56.686Z,26.33
2023-04-22T07:50:24.747Z,23.43
2023-04-22T07:52:53.127Z,30.07
2023-04-22T07:55:21.146Z,28.06
2023-04-22T07:57:49.139Z,26.74
2023-04-22T08:00:17.958Z,30.81
2023-04-22T08:02:47.896Z,25.25
2023-04-22T08:05:16.396Z,26.26
2023-04-22T08:07:44.346Z,37.10
2023-04-22T08:10:12.941Z,24.69
2023-04-22T08:12:41.041Z,27.50
2023-04-22T08:15:09.592Z,28.76
2023-04-22T08:17:38.001Z,36.99
2023-04-22T08:20:08.196Z,31.51
2023-04-22T08:22:37.027Z,25.75
2023-04-22T08:25:09.275Z,30.35
2023-04-22T08:27:38.588Z,21.80
2023-04-22T08:30:07.876Z,28.56
2023-04-22T08:32:36.293Z,23.16
2023-04-22T08:35:05.526Z,30.74
2023-04-22T08:37:35.136Z,27.36
2023-04-22T08:40:05.220Z,27.96
2023-04-22T08:42:34.128Z,30.64
2023-04-22T08:45:04.779Z,31.32
2023-04-22T08:47:35.441Z,28.59
2023-04-22T08:50:04.825Z,27.54
2023-04-22T08:52:33.473Z,28.79
2023-04-22T08:55:01.446Z,23.45
2023-04-22T08:57:33.098Z,28.52
2023-04-22T09:00:01.433Z,25.36
2023-04-22T09:02:34.509Z,27.44
2023-04-22T09:05:09.520Z,28.74
2023-04-22T09:07:38.976Z,29.44
2023-04-22T09:10:08.716Z,29.97
2023-04-22T09:12:40.644Z,29.41
2023-04-22T09:15:10.562Z,28.73
2023-04-22T09:17:39.529Z,29.44
2023-04-22T09:20:09.209Z,36.12
2023-04-22T09:22:49.292Z,27.29
2023-04-22T09:25:21.890Z,26.68
2023-04-22T09:27:55.307Z,25.39
2023-04-22T09:30:35.212Z,31.47
2023-04-22T09:33:06.790Z,25.79
2023-04-22T09:35:40.182Z,27.01
2023-04-22T09:38:11.290Z,29.09
2023-04-22T09:40:43.426Z,30.23
2023-04-22T09:43:12.427Z,30.73
2023-04-22T09:45:42.369Z,31.20
2023-04-22T09:48:19.326Z,34.18
2023-04-22T09:50:50.208Z,28.84
2023-04-22T09:53:20.445Z,24.52
2023-04-22T09:55:51.457Z,29.98
2023-04-22T09:58:21.304Z,27.91
2023-04-22T10:00:52.459Z,24.13
2023-04-22T10:03:21.192Z,27.77
2023-04-22T10:05:49.393Z,23.71
2023-04-22T10:08:17.882Z,24.97
2023-04-22T10:10:46.887Z,25.27
2023-04-22T10:13:15.075Z,27.27
2023-04-22T10:16:09.528Z,28.49
2023-04-22T10:18:40.189Z,29.48
2023-04-22T10:21:08.376Z,29.05
2023-04-22T10:23:36.280Z,28.88
2023-04-22T10:26:06.296Z,29.04
2023-04-22T10:28:34.293Z,29.46
2023-04-22T10:31:08.014Z,27.81
2023-04-22T10:33:36.952Z,28.83
2023-04-22T10:36:20.506Z,30.71
2023-04-22T10:38:55.094Z,27.48
2023-04-22T10:41:34.657Z,25.94
2023-04-22T10:44:08.432Z,28.20
2023-04-22T10:46:40.412Z,27.73
2023-04-22T10:49:20.891Z,28.24
2023-04-22T10:51:51.093Z,27.09
2023-04-22T10:54:37.886Z,25.85
2023-04-22T10:57:19.665Z,26.97
2023-04-22T10:59:53.296Z,27.70
2023-04-22T11:02:23.198Z,28.11
2023-04-22T11:04:54.914Z,26.91
2023-04-22T11:07:30.482Z,27.64
2023-04-22T11:10:08.290Z,27.88
2023-04-22T11:12:36.314Z,33.13
2023-04-22T11:15:11.298Z,27.91
2023-04-22T11:17:42.986Z,27.92
2023-04-22T11:20:13.228Z,31.52
2023-04-22T11:22:52.458Z,22.00
2023-04-22T11:25:25.065Z,22.78
2023-04-22T11:27:54.779Z,22.55
2023-04-22T11:30:25.856Z,24.20
2023-04-22T11:32:56.682Z,25.36
2023-04-22T11:35:34.615Z,27.31
2023-04-22T11:38:04.585Z,28.23
2023-04-22T11:40:38.852Z,28.04
2023-04-22T11:43:09.742Z,29.15
2023-04-22T11:45:40.260Z,28.83
2023-04-22T11:48:13.358Z,29.55
2023-04-22T11:50:45.061Z,28.21
2023-04-22T11:53:17.606Z,29.05
2023-04-22T11:55:49.092Z,28.90
2023-04-22T11:58:25.377Z,29.84
2023-04-22T12:00:55.119Z,28.12
2023-04-22T12:03:27.038Z,27.24
2023-04-22T12:05:56.417Z,26.28
2023-04-22T12:08:31.961Z,30.28
2023-04-22T12:11:02.586Z,25.86
2023-04-22T12:13:42.910Z,25.12
2023-04-22T12:16:13.104Z,25.87
2023-04-22T12:18:52.400Z,25.81
2023-04-22T12:21:25.124Z,25.74
2023-04-22T12:23:56.276Z,25.63
2023-04-22T12:26:27.578Z,25.51
2023-04-22T12:28:58.658Z,23.47
2023-04-22T12:31:27.731Z,22.71
2023-04-22T12:34:00.462Z,24.35
2023-04-22T12:36:29.441Z,26.04
2023-04-22T12:38:58.020Z,26.99
2023-04-22T12:41:26.292Z,28.10
2023-04-22T12:43:55.770Z,27.60
2023-04-22T12:46:24.509Z,28.29
2023-04-22T12:48:52.642Z,28.72
2023-04-22T12:51:20.959Z,34.61
2023-04-22T12:53:49.410Z,28.00
2023-04-22T12:56:17.704Z,27.85
2023-04-22T12:58:45.838Z,27.51
2023-04-22T13:01:14.949Z,27.72
2023-04-22T13:03:44.049Z,27.72
2023-04-22T13:06:12.496Z,24.46
2023-04-22T13:08:40.843Z,21.91
2023-04-22T13:11:09.282Z,22.75
2023-04-22T13:13:37.390Z,22.78
2023-04-22T13:16:06.288Z,24.70
2023-04-22T13:18:34.659Z,26.86
2023-04-22T13:21:02.795Z,27.48
2023-04-22T13:23:31.285Z,28.04
2023-04-22T13:25:59.110Z,28.74
2023-04-22T13:28:27.825Z,28.64
2023-04-22T13:30:56.195Z,27.35
2023-04-22T13:33:24.322Z,23.68
2023-04-22T13:35:55.092Z,21.36
2023-04-22T13:38:23.791Z,19.61
2023-04-22T13:40:51.815Z,19.06
2023-04-22T13:43:19.735Z,17.40
2023-04-22T13:45:48.937Z,16.50
2023-04-22T13:48:17.279Z,16.25
2023-04-22T13:50:45.905Z,15.70
2023-04-22T13:53:14.574Z,16.80
2023-04-22T13:55:43.653Z,18.39
2023-04-22T13:58:11.806Z,20.11
2023-04-22T14:00:40.139Z,21.93
2023-04-22T14:03:08.724Z,23.78
2023-04-22T14:05:37.310Z,25.85
2023-04-22T14:08:05.453Z,26.68
2023-04-22T14:10:33.733Z,27.37
2023-04-22T14:13:01.833Z,27.83
2023-04-22T14:15:29.765Z,27.47
2023-04-22T14:17:58.204Z,26.82
2023-04-22T14:20:26.396Z,23.25
2023-04-22T14:22:54.272Z,20.63
2023-04-22T14:25:22.486Z,19.13
2023-04-22T14:27:50.470Z,17.84
2023-04-22T14:30:18.795Z,17.31
2023-04-22T14:32:47.243Z,16.52
2023-04-22T14:35:15.468Z,16.28
2023-04-22T14:37:45.399Z,16.00
2023-04-22T14:40:13.996Z,15.87
2023-04-22T14:42:42.169Z,15.82
2023-04-22T14:45:10.633Z,16.76
2023-04-22T14:47:38.968Z,16.60
2023-04-22T14:50:07.269Z,16.81
2023-04-22T14:52:35.307Z,16.91
2023-04-22T14:55:15.528Z,16.69
2023-04-22T14:57:49.729Z,16.94
2023-04-22T15:00:18.537Z,17.08
2023-04-22T15:02:46.896Z,16.92
2023-04-22T15:05:15.524Z,16.74
2023-04-22T15:07:46.527Z,16.36
2023-04-22T15:10:17.162Z,16.66
2023-04-22T15:12:47.078Z,16.53
2023-04-22T15:15:16.371Z,16.44
2023-04-22T15:17:45.018Z,16.52
2023-04-22T15:20:14.343Z,16.53
2023-04-22T15:22:42.581Z,16.98
2023-04-22T15:25:14.737Z,17.51
2023-04-22T15:27:44.698Z,19.05
2023-04-22T15:30:12.881Z,22.10
2023-04-22T15:32:41.424Z,24.05
2023-04-22T15:35:10.473Z,24.98
2023-04-22T15:37:39.684Z,25.92
2023-04-22T15:40:08.411Z,26.66
2023-04-22T15:42:40.090Z,27.82
2023-04-22T15:45:08.879Z,27.34
2023-04-22T15:47:37.679Z,25.17
2023-04-22T15:50:06.801Z,23.91
2023-04-22T15:52:36.008Z,22.61
2023-04-22T15:55:05.373Z,21.88
2023-04-22T15:57:37.212Z,21.58
2023-04-22T16:00:12.531Z,23.32
2023-04-22T16:02:44.945Z,23.09
2023-04-22T16:05:15.055Z,23.14
2023-04-22T16:07:43.238Z,23.89
2023-04-22T16:10:11.393Z,23.90
2023-04-22T16:12:39.856Z,24.48
2023-04-22T16:15:08.683Z,24.65
2023-04-22T16:17:38.182Z,24.82
2023-04-22T16:20:07.806Z,27.01
2023-04-22T16:22:35.763Z,27.44
2023-04-22T16:25:04.537Z,29.78
2023-04-22T16:27:32.953Z,29.18
2023-04-22T16:30:01.101Z,31.42
2023-04-22T16:32:29.989Z,31.91
2023-04-22T16:34:58.234Z,31.91
2023-04-22T16:37:27.451Z,33.19
2023-04-22T16:39:55.828Z,33.30
2023-04-22T16:42:24.230Z,33.91
2023-04-22T16:44:52.354Z,33.95
2023-04-22T16:47:20.687Z,34.30
2023-04-22T16:49:49.174Z,34.72
2023-04-22T16:52:17.536Z,35.60
2023-04-22T16:54:46.141Z,35.41
2023-04-22T16:57:14.373Z,36.24
2023-04-22T16:59:42.536Z,36.48
2023-04-22T17:02:11.003Z,35.95
2023-04-22T17:04:39.737Z,36.59
2023-04-22T17:07:07.750Z,37.68
2023-04-22T17:09:35.804Z,36.97
2023-04-22T17:12:04.350Z,36.33
2023-04-22T17:14:32.512Z,38.13
2023-04-22T17:17:00.572Z,37.19
2023-04-22T17:19:28.984Z,37.62
2023-04-22T17:21:57.235Z,40.68
2023-04-22T17:24:25.506Z,41.10
2023-04-22T17:26:53.776Z,42.37
2023-04-22T17:29:21.973Z,40.76
2023-04-22T17:31:51.113Z,38.55
2023-04-22T17:34:19.485Z,38.12
2023-04-22T17:36:47.677Z,40.18
2023-04-22T17:39:15.777Z,43.85
2023-04-22T17:41:44.706Z,41.73
2023-04-22T17:44:12.700Z,41.78
2023-04-22T17:46:41.939Z,42.89
2023-04-22T17:49:10.289Z,42.06
2023-04-22T17:51:38.287Z,44.04
2023-04-22T17:54:07.102Z,43.34
2023-04-22T18:02:06.684Z,44.32
2023-04-22T18:07:20.061Z,42.37
2023-04-22T18:09:49.911Z,42.25
2023-04-22T18:12:18.045Z,43.02
2023-04-22T18:14:46.050Z,48.64
2023-04-22T18:20:13.783Z,48.53
2023-04-22T18:22:49.315Z,49.24
2023-04-22T18:25:17.355Z,49.08
2023-04-22T18:27:47.918Z,50.69
2023-04-22T18:30:16.043Z,54.22
2023-04-22T18:32:44.045Z,51.45
2023-04-22T18:35:12.340Z,47.92
2023-04-22T18:37:40.285Z,50.03
2023-04-22T18:40:09.073Z,52.64
2023-04-22T18:42:38.007Z,49.79
2023-04-22T18:45:06.829Z,47.04
2023-04-22T18:47:35.407Z,45.08
2023-04-22T18:50:04.631Z,45.07
2023-04-22T18:52:33.507Z,48.08
2023-04-22T18:55:01.580Z,48.40
2023-04-22T18:57:33.207Z,48.34
2023-04-22T19:00:01.264Z,47.05
2023-04-22T19:02:38.450Z,45.76
2023-04-22T19:05:09.051Z,44.99
2023-04-22T19:07:38.605Z,45.53
2023-04-22T19:10:07.943Z,46.39
2023-04-22T19:12:36.600Z,46.02
2023-04-22T19:15:05.443Z,46.26
2023-04-22T19:17:35.241Z,47.58
2023-04-22T19:20:05.424Z,48.70
2023-04-22T19:22:40.648Z,54.55
2023-04-22T19:25:09.230Z,54.31
2023-04-22T19:27:37.637Z,52.01
2023-04-22T19:30:07.282Z,49.09
2023-04-22T19:32:35.951Z,50.38
2023-04-22T19:35:06.508Z,54.00
2023-04-22T19:37:34.438Z,50.93
2023-04-22T19:40:02.298Z,51.43
2023-04-22T19:42:31.534Z,53.65
2023-04-22T19:45:00.009Z,53.16
2023-04-22T19:47:28.316Z,55.32
2023-04-22T19:49:57.598Z,55.62
2023-04-22T19:52:25.962Z,51.34
2023-04-22T19:54:59.719Z,50.98
2023-04-22T19:57:28.048Z,52.31
2023-04-22T19:59:56.262Z,49.33
2023-04-22T20:02:24.475Z,49.69
2023-04-22T20:04:53.741Z,49.73
2023-04-22T20:07:21.596Z,48.44
2023-04-22T20:09:51.346Z,48.24
2023-04-22T20:12:20.333Z,47.70
2023-04-22T20:14:49.475Z,47.63
2023-04-22T20:17:17.498Z,47.72
2023-04-22T20:19:46.130Z,48.17
2023-04-22T20:22:17.290Z,48.53
2023-04-22T20:24:46.095Z,48.76
2023-04-22T20:27:15.257Z,50.04
2023-04-22T20:29:44.485Z,50.68
2023-04-22T20:32:13.004Z,49.70
2023-04-22T20:34:41.371Z,49.17
2023-04-22T20:37:12.595Z,50.11
2023-04-22T20:39:49.352Z,50.94
2023-04-22T20:42:18.863Z,54.47
2023-04-22T20:44:47.361Z,57.90
2023-04-22T20:47:16.668Z,53.87
2023-04-22T20:49:45.047Z,52.37
2023-04-22T20:52:13.535Z,51.31
2023-04-22T20:54:41.469Z,50.79
2023-04-22T20:57:09.497Z,50.33
2023-04-22T20:59:37.775Z,50.65
2023-04-22T21:02:07.196Z,51.04
2023-04-22T21:04:35.426Z,50.62
2023-04-22T21:07:14.656Z,50.68
2023-04-22T21:09:43.571Z,55.67
2023-04-22T21:12:12.509Z,66.30
2023-04-22T21:14:43.115Z,60.42
2023-04-22T21:17:21.301Z,68.16
2023-04-22T21:19:51.305Z,71.00
2023-04-22T21:22:23.172Z,62.17
2023-04-22T21:24:52.253Z,55.45
2023-04-22T21:27:22.513Z,54.54
2023-04-22T21:29:50.766Z,53.79
2023-04-22T21:32:20.857Z,53.00
2023-04-22T21:34:51.925Z,55.13
2023-04-22T21:37:20.546Z,53.98
2023-04-22T21:39:48.366Z,61.60
2023-04-22T21:42:16.559Z,66.63
2023-04-22T21:44:50.273Z,67.58
2023-04-22T21:47:18.695Z,56.86
2023-04-22T21:49:47.375Z,54.24
2023-04-22T21:52:15.370Z,53.69
2023-04-22T21:54:44.390Z,53.63
2023-04-22T21:57:12.691Z,53.44
2023-04-22T21:59:41.060Z,60.51
2023-04-22T22:02:09.875Z,71.99
2023-04-22T22:04:38.292Z,66.08
2023-04-22T22:07:06.912Z,66.50
2023-04-22T22:09:34.944Z,58.46
2023-04-22T22:12:03.256Z,56.14
2023-04-22T22:14:31.118Z,60.44
2023-04-22T22:16:59.478Z,58.15
2023-04-22T22:19:31.050Z,58.61
2023-04-22T22:21:59.345Z,57.39
2023-04-22T22:24:30.431Z,56.69
2023-04-22T22:26:59.116Z,55.78
2023-04-22T22:29:27.880Z,55.67
2023-04-22T22:31:59.034Z,63.44
2023-04-22T22:34:29.719Z,63.01
2023-04-22T22:36:58.652Z,60.34
2023-04-22T22:39:26.668Z,59.17
2023-04-22T22:41:55.845Z,60.96
2023-04-22T22:44:23.818Z,59.67
2023-04-22T22:46:51.876Z,59.64
2023-04-22T22:49:20.245Z,59.37
2023-04-22T22:51:48.476Z,58.44
2023-04-22T22:54:16.524Z,59.35
2023-04-22T22:56:44.883Z,58.18
2023-04-22T22:59:12.708Z,61.60
2023-04-22T23:01:41.813Z,61.48
2023-04-22T23:04:11.121Z,58.35
2023-04-22T23:06:39.218Z,57.46
2023-04-22T23:09:07.887Z,57.32
2023-04-22T23:11:36.170Z,57.20
2023-04-22T23:14:06.736Z,56.70
2023-04-22T23:16:35.463Z,56.99
2023-04-22T23:19:04.051Z,60.19
2023-04-22T23:21:32.480Z,70.31
2023-04-22T23:24:01.657Z,74.72
2023-04-22T23:26:30.109Z,63.70
2023-04-22T23:28:58.630Z,65.26
2023-04-22T23:31:27.743Z,62.97
2023-04-22T23:33:57.425Z,60.12
2023-04-22T23:36:26.840Z,60.37
2023-04-22T23:38:57.744Z,58.59
2023-04-22T23:41:26.304Z,59.86
2023-04-22T23:43:54.179Z,62.72
2023-04-22T23:46:22.489Z,62.86
2023-04-22T23:48:50.858Z,61.93
2023-04-22T23:51:18.820Z,60.36
2023-04-22T23:53:47.184Z,59.81
2023-04-22T23:56:20.779Z,61.98
2023-04-22T23:58:49.955Z,62.53
